createdAt,value
2023-02-08T00:00:23.363Z,19.85
2023-02-08T00:04:26.508Z,19.13
2023-02-08T00:08:29.620Z,19.20
2023-02-08T00:12:32.820Z,28.58
2023-02-08T00:16:37.301Z,25.58
2023-02-08T00:20:41.713Z,18.83
2023-02-08T00:24:44.987Z,21.25
2023-02-08T00:28:48.040Z,19.75
2023-02-08T00:32:52.563Z,15.20
2023-02-08T00:36:55.516Z,26.20
2023-02-08T00:40:59.416Z,18.70
2023-02-08T00:45:02.707Z,14.48
2023-02-08T00:49:07.378Z,16.58
2023-02-08T00:53:10.637Z,17.50
2023-02-08T00:57:14.263Z,20.27
2023-02-08T01:01:17.775Z,20.15
2023-02-08T01:05:22.482Z,23.95
2023-02-08T01:09:25.820Z,26.10
2023-02-08T01:13:29.153Z,28.90
2023-02-08T01:17:32.328Z,21.23
2023-02-08T01:21:38.603Z,15.45
2023-02-08T01:25:42.833Z,20.58
2023-02-08T01:29:45.872Z,19.38
2023-02-08T01:33:49.693Z,16.85
2023-02-08T01:37:54.014Z,25.90
2023-02-08T01:41:57.176Z,22.17
2023-02-08T01:46:00.796Z,15.45
2023-02-08T01:50:04.053Z,19.83
2023-02-08T01:54:12.219Z,31.63
2023-02-08T01:58:16.407Z,19.40
2023-02-08T02:02:22.617Z,26.20
2023-02-08T02:06:30.182Z,13.15
2023-02-08T02:10:38.838Z,22.33
2023-02-08T02:14:44.046Z,15.93
2023-02-08T02:18:47.245Z,15.77
2023-02-08T02:23:32.161Z,16.48
2023-02-08T02:28:04.695Z,14.25
2023-02-08T02:32:32.069Z,14.20
2023-02-08T02:36:44.076Z,25.58
2023-02-08T02:40:54.762Z,17.65
2023-02-08T02:45:08.604Z,14.57
2023-02-08T02:49:18.916Z,22.08
2023-02-08T02:53:28.490Z,11.80
2023-02-08T02:57:33.867Z,23.60
2023-02-08T03:01:37.707Z,20.80
2023-02-08T03:05:42.580Z,9.57
2023-02-08T03:10:01.491Z,16.65
2023-02-08T03:14:17.612Z,11.13
2023-02-08T03:18:31.486Z,17.60
2023-02-08T03:22:46.603Z,19.73
2023-02-08T03:26:56.993Z,11.07
2023-02-08T03:31:06.504Z,14.10
2023-02-08T03:35:17.091Z,11.05
2023-02-08T03:39:27.626Z,18.35
2023-02-08T03:43:35.436Z,30.65
2023-02-08T03:47:42.169Z,13.60
2023-02-08T03:51:47.074Z,19.67
2023-02-08T03:55:56.953Z,24.33
2023-02-08T04:00:06.897Z,15.98
2023-02-08T04:04:10.849Z,18.17
2023-02-08T04:08:15.050Z,18.52
2023-02-08T04:12:19.749Z,21.98
2023-02-08T04:16:22.962Z,16.95
2023-02-08T04:20:26.213Z,20.98
2023-02-08T04:24:29.483Z,18.02
2023-02-08T04:28:34.201Z,24.88
2023-02-08T04:32:37.280Z,10.48
2023-02-08T04:36:40.731Z,20.33
2023-02-08T04:40:44.100Z,19.65
2023-02-08T04:44:48.662Z,16.95
2023-02-08T04:48:52.053Z,18.95
2023-02-08T04:52:55.216Z,16.50
2023-02-08T04:56:59.893Z,17.77
2023-02-08T05:01:07.737Z,16.42
2023-02-08T05:05:11.244Z,12.20
2023-02-08T05:09:15.201Z,20.30
2023-02-08T05:13:18.770Z,17.70
2023-02-08T05:17:23.711Z,16.55
2023-02-08T05:21:26.997Z,27.08
2023-02-08T05:25:30.381Z,10.45
2023-02-08T05:29:33.532Z,15.65
2023-02-08T05:33:38.654Z,19.63
2023-02-08T05:37:41.843Z,23.67
2023-02-08T05:41:45.296Z,12.40
2023-02-08T05:45:49.524Z,17.77
2023-02-08T05:49:54.346Z,27.63
2023-02-08T05:53:57.219Z,26.40
2023-02-08T05:58:00.607Z,25.02
2023-02-08T06:02:03.719Z,15.88
2023-02-08T06:06:11.269Z,29.30
2023-02-08T06:10:14.579Z,26.75
2023-02-08T06:14:17.901Z,21.77
2023-02-08T06:18:20.784Z,13.93
2023-02-08T06:22:26.160Z,13.07
2023-02-08T06:26:29.206Z,21.48
2023-02-08T06:30:32.874Z,20.00
2023-02-08T06:34:35.852Z,12.00
2023-02-08T06:38:40.608Z,25.35
2023-02-08T06:42:44.428Z,16.60
2023-02-08T06:46:47.766Z,11.68
2023-02-08T06:50:53.977Z,25.15
2023-02-08T06:54:58.588Z,23.08
2023-02-08T06:59:01.829Z,24.88
2023-02-08T07:03:04.830Z,15.77
2023-02-08T07:07:08.435Z,23.33
2023-02-08T07:11:15.916Z,30.10
2023-02-08T07:15:18.940Z,24.23
2023-02-08T07:19:22.206Z,24.10
2023-02-08T07:23:25.552Z,28.35
2023-02-08T07:27:30.607Z,25.50
2023-02-08T07:31:33.904Z,28.88
2023-02-08T07:35:37.468Z,21.60
2023-02-08T07:39:40.610Z,27.73
2023-02-08T07:43:45.466Z,30.55
2023-02-08T07:47:49.076Z,28.42
2023-02-08T07:51:52.480Z,35.20
2023-02-08T07:55:55.580Z,19.42
2023-02-08T08:00:00.177Z,28.20
2023-02-08T08:04:03.589Z,34.67
2023-02-08T08:08:06.611Z,23.70
2023-02-08T08:12:09.979Z,24.08
2023-02-08T08:16:15.076Z,20.52
2023-02-08T08:20:19.094Z,25.80
2023-02-08T08:24:22.206Z,26.15
2023-02-08T08:28:26.096Z,26.40
2023-02-08T08:32:30.466Z,34.92
2023-02-08T08:36:34.591Z,26.33
2023-02-08T08:40:38.698Z,29.92
2023-02-08T08:44:42.527Z,33.47
2023-02-08T08:48:48.351Z,36.13
2023-02-08T08:52:51.628Z,29.73
2023-02-08T08:56:54.555Z,25.10
2023-02-08T09:00:58.792Z,21.65
2023-02-08T09:05:05.507Z,33.10
2023-02-08T09:09:09.028Z,28.10
2023-02-08T09:13:13.213Z,29.35
2023-02-08T09:17:16.627Z,28.67
2023-02-08T09:21:24.744Z,28.55
2023-02-08T09:25:28.469Z,27.92
2023-02-08T09:29:32.971Z,22.60
2023-02-08T09:33:35.849Z,28.13
2023-02-08T09:37:40.421Z,20.73
2023-02-08T09:42:11.739Z,27.75
2023-02-08T09:46:19.788Z,30.77
2023-02-08T09:50:32.693Z,30.45
2023-02-08T09:54:40.652Z,31.50
2023-02-08T09:58:46.361Z,24.50
2023-02-08T10:02:50.587Z,44.78
2023-02-08T10:06:54.176Z,24.17
2023-02-08T10:11:12.240Z,32.38
2023-02-08T10:15:26.148Z,28.52
2023-02-08T10:19:43.789Z,25.95
2023-02-08T10:24:06.863Z,35.80
2023-02-08T10:28:36.184Z,32.88
2023-02-08T10:32:51.708Z,21.08
2023-02-08T10:36:55.378Z,27.60
2023-02-08T10:41:00.912Z,24.25
2023-02-08T10:45:24.241Z,27.75
2023-02-08T10:49:38.429Z,25.50
2023-02-08T10:53:41.933Z,23.33
2023-02-08T10:57:45.791Z,30.48
2023-02-08T11:01:51.333Z,25.15
2023-02-08T11:05:55.336Z,28.00
2023-02-08T11:10:16.506Z,24.15
2023-02-08T11:14:24.188Z,32.80
2023-02-08T11:18:32.140Z,23.63
2023-02-08T11:22:35.800Z,14.65
2023-02-08T11:26:38.940Z,19.95
2023-02-08T11:30:42.344Z,20.45
2023-02-08T11:34:47.762Z,18.63
2023-02-08T11:38:50.870Z,24.83
2023-02-08T11:42:54.805Z,19.05
2023-02-08T11:47:00.723Z,24.00
2023-02-08T11:51:06.048Z,20.02
2023-02-08T11:55:25.855Z,20.30
2023-02-08T11:59:29.819Z,12.88
2023-02-08T12:03:37.811Z,21.58
2023-02-08T12:07:58.402Z,24.55
2023-02-08T12:12:14.567Z,15.82
2023-02-08T12:16:36.225Z,16.60
2023-02-08T12:20:42.457Z,15.75
2023-02-08T12:24:51.975Z,14.52
2023-02-08T12:29:18.922Z,13.20
2023-02-08T12:33:41.459Z,16.23
2023-02-08T12:38:45.028Z,21.02
2023-02-08T12:43:09.085Z,15.57
2023-02-08T12:47:32.608Z,19.27
2023-02-08T12:51:43.873Z,13.18
2023-02-08T12:55:50.037Z,12.65
2023-02-08T12:59:59.316Z,12.85
2023-02-08T13:04:07.835Z,11.93
2023-02-08T13:08:19.919Z,11.27
2023-02-08T13:12:28.404Z,10.98
2023-02-08T13:16:39.393Z,11.45
2023-02-08T13:20:46.414Z,9.82
2023-02-08T13:25:05.002Z,10.43
2023-02-08T13:29:19.193Z,9.63
2023-02-08T13:33:32.815Z,8.18
2023-02-08T13:37:37.263Z,14.30
2023-02-08T13:41:50.304Z,11.07
2023-02-08T13:45:56.511Z,7.65
2023-02-08T13:50:06.167Z,13.75
2023-02-08T13:54:13.682Z,8.82
2023-02-08T13:58:39.807Z,7.53
2023-02-08T14:03:00.060Z,9.77
2023-02-08T14:07:24.628Z,6.40
2023-02-08T14:11:40.803Z,8.32
2023-02-08T14:15:44.201Z,6.82
2023-02-08T14:19:57.350Z,7.50
2023-02-08T14:24:07.519Z,14.30
2023-02-08T14:28:27.199Z,11.55
2023-02-08T14:32:32.677Z,6.57
2023-02-08T14:36:37.440Z,8.43
2023-02-08T14:40:53.292Z,12.27
2023-02-08T14:45:01.345Z,6.63
2023-02-08T14:49:07.025Z,3.83
2023-02-08T14:53:31.169Z,7.13
2023-02-08T14:57:38.152Z,8.60
2023-02-08T15:01:44.375Z,5.40
2023-02-08T15:06:04.979Z,4.95
2023-02-08T15:10:14.387Z,5.55
2023-02-08T15:14:22.567Z,6.82
2023-02-08T15:18:32.560Z,7.60
2023-02-08T15:22:38.396Z,8.70
2023-02-08T15:26:46.082Z,5.55
2023-02-08T15:30:58.193Z,7.40
2023-02-08T15:35:04.020Z,7.07
2023-02-08T15:39:18.119Z,21.17
2023-02-08T15:43:23.353Z,8.23
2023-02-08T15:47:31.894Z,9.10
2023-02-08T15:51:37.742Z,8.80
2023-02-08T15:55:48.455Z,12.27
2023-02-08T15:59:51.898Z,9.40
2023-02-08T16:03:59.892Z,14.02
2023-02-08T16:08:04.839Z,8.48
2023-02-08T16:12:15.401Z,7.20
2023-02-08T16:16:22.086Z,12.02
2023-02-08T16:20:42.191Z,7.00
2023-02-08T16:24:47.243Z,6.97
2023-02-08T16:28:56.322Z,8.98
2023-02-08T16:33:00.100Z,10.73
2023-02-08T16:37:06.478Z,7.07
2023-02-08T16:41:14.986Z,10.50
2023-02-08T16:45:20.598Z,13.32
2023-02-08T16:49:24.382Z,10.77
2023-02-08T16:53:41.458Z,8.00
2023-02-08T16:57:48.318Z,6.47
2023-02-08T17:01:51.600Z,8.00
2023-02-08T17:05:54.882Z,10.90
2023-02-08T17:09:59.749Z,13.13
2023-02-08T17:14:03.191Z,12.77
2023-02-08T17:18:06.333Z,15.43
2023-02-08T17:22:09.453Z,13.35
2023-02-08T17:26:17.813Z,14.02
2023-02-08T17:30:24.380Z,14.43
2023-02-08T17:34:27.999Z,10.43
2023-02-08T17:38:31.051Z,15.00
2023-02-08T17:42:35.628Z,13.27
2023-02-08T17:46:40.458Z,15.80
2023-02-08T17:50:48.125Z,8.43
2023-02-08T17:54:51.198Z,12.38
2023-02-08T17:58:57.000Z,11.27
2023-02-08T18:03:01.090Z,18.83
2023-02-08T18:07:05.056Z,13.95
2023-02-08T18:11:12.897Z,17.70
2023-02-08T18:15:19.852Z,17.13
2023-02-08T18:19:23.846Z,17.95
2023-02-08T18:23:30.974Z,11.50
2023-02-08T18:27:38.233Z,14.77
2023-02-08T18:31:42.965Z,9.90
2023-02-08T18:35:49.929Z,13.32
2023-02-08T18:39:54.560Z,13.63
2023-02-08T18:43:59.394Z,16.52
2023-02-08T18:48:04.251Z,19.33
2023-02-08T18:52:08.108Z,21.17
2023-02-08T18:56:13.622Z,14.85
2023-02-08T19:00:17.655Z,19.08
2023-02-08T19:04:22.285Z,15.52
2023-02-08T19:08:25.381Z,16.13
2023-02-08T19:12:28.291Z,19.95
2023-02-08T19:16:32.945Z,14.77
2023-02-08T19:20:40.365Z,18.65
2023-02-08T19:24:43.769Z,11.65
2023-02-08T19:28:47.290Z,14.50
2023-02-08T19:32:51.116Z,12.57
2023-02-08T19:36:56.423Z,12.20
2023-02-08T19:40:59.653Z,9.27
2023-02-08T19:45:02.595Z,15.57
2023-02-08T19:49:07.400Z,14.50
2023-02-08T19:53:12.290Z,11.13
2023-02-08T19:57:16.233Z,14.68
2023-02-08T20:01:21.277Z,18.55
2023-02-08T20:05:24.452Z,19.50
2023-02-08T20:09:28.857Z,13.82
2023-02-08T20:13:32.287Z,11.90
2023-02-08T20:17:35.413Z,11.07
2023-02-08T20:21:40.268Z,14.73
2023-02-08T20:25:45.354Z,9.15
2023-02-08T20:29:48.908Z,10.23
2023-02-08T20:33:52.967Z,14.55
2023-02-08T20:37:56.483Z,13.18
2023-02-08T20:42:01.322Z,15.82
2023-02-08T20:46:07.398Z,14.32
2023-02-08T20:50:18.754Z,15.15
2023-02-08T20:54:24.577Z,11.57
2023-02-08T20:58:29.176Z,14.98
2023-02-08T21:02:32.706Z,14.95
2023-02-08T21:06:37.732Z,16.55
2023-02-08T21:10:40.917Z,15.00
2023-02-08T21:14:45.357Z,8.07
2023-02-08T21:18:48.731Z,15.02
2023-02-08T21:22:51.936Z,7.07
2023-02-08T21:26:56.943Z,11.52
2023-02-08T21:31:03.469Z,11.68
2023-02-08T21:35:07.989Z,7.45
2023-02-08T21:39:11.829Z,8.27
2023-02-08T21:43:15.094Z,11.52
2023-02-08T21:47:19.746Z,10.02
2023-02-08T21:51:41.329Z,10.45
2023-02-08T21:55:47.615Z,10.33
2023-02-08T21:59:53.110Z,11.23
2023-02-08T22:03:57.555Z,11.45
2023-02-08T22:08:01.007Z,11.18
2023-02-08T22:12:06.341Z,12.70
2023-02-08T22:16:10.647Z,8.25
2023-02-08T22:20:16.740Z,7.03
2023-02-08T22:24:20.044Z,6.53
2023-02-08T22:28:23.571Z,7.75
2023-02-08T22:32:26.824Z,13.65
2023-02-08T22:36:31.474Z,7.93
2023-02-08T22:40:34.907Z,12.70
2023-02-08T22:44:39.078Z,5.70
2023-02-08T22:48:42.533Z,6.15
2023-02-08T22:52:48.887Z,4.35
2023-02-08T22:56:52.452Z,8.77
2023-02-08T23:00:55.351Z,8.27
2023-02-08T23:04:58.782Z,12.27
2023-02-08T23:09:04.538Z,9.23
2023-02-08T23:13:09.110Z,5.32
2023-02-08T23:22:38.101Z,11.60
2023-02-08T23:26:42.684Z,7.05
2023-02-08T23:30:46.890Z,6.55
2023-02-08T23:34:50.380Z,11.10
2023-02-08T23:38:54.083Z,6.57
2023-02-08T23:42:58.720Z,11.75
2023-02-08T23:47:02.239Z,8.88
2023-02-08T23:51:08.129Z,9.52
2023-02-08T23:55:11.346Z,8.60
2023-02-08T23:59:15.830Z,5.13
